createdAt,value
2023-03-13T09:35:50.884Z,-7.08
2023-03-13T09:41:05.782Z,-7.01
2023-03-13T09:46:14.424Z,-7.08
2023-03-13T09:51:20.386Z,-7.04
2023-03-13T09:56:25.893Z,-7.06
2023-03-13T10:01:31.307Z,-6.92
2023-03-13T10:06:39.998Z,-6.97
2023-03-13T10:11:47.357Z,-6.95
2023-03-13T10:16:54.353Z,-6.69
2023-03-13T10:22:04.398Z,-6.50
2023-03-13T10:27:16.356Z,-6.27
2023-03-13T10:32:20.867Z,-5.96
2023-03-13T10:37:29.842Z,-5.74
2023-03-13T10:42:37.809Z,-5.51
2023-03-13T10:47:41.184Z,-5.17
2023-03-13T10:52:47.593Z,-4.96
2023-03-13T10:57:56.278Z,-4.65
2023-03-13T11:02:59.830Z,-4.46
2023-03-13T11:08:13.723Z,-4.11
2023-03-13T11:13:36.400Z,-3.76
2023-03-13T11:18:43.883Z,-3.67
2023-03-13T11:23:52.131Z,-3.57
2023-03-13T11:28:59.591Z,-3.32
2023-03-13T11:34:07.562Z,-3.13
2023-03-13T11:39:35.900Z,-3.17
2023-03-13T11:44:48.049Z,-2.95
2023-03-13T11:50:09.666Z,-2.97
2023-03-13T11:55:36.342Z,-2.77
2023-03-13T12:00:49.428Z,-2.70
2023-03-13T12:05:54.414Z,-2.30
2023-03-13T12:11:08.410Z,-2.22
2023-03-13T12:16:16.340Z,-1.80
2023-03-13T12:21:26.759Z,-1.66
2023-03-13T12:27:06.557Z,-1.74
2023-03-13T12:32:46.708Z,-1.92
2023-03-13T12:37:55.501Z,-2.02
2023-03-13T12:43:05.172Z,-2.02
2023-03-13T12:48:22.270Z,-1.79
2023-03-13T12:53:42.998Z,-1.59
2023-03-13T12:58:49.386Z,-1.24
2023-03-13T13:03:55.006Z,-0.81
2023-03-13T13:09:07.852Z,-0.75
2023-03-13T13:14:31.190Z,-0.83
2023-03-13T13:19:45.142Z,-0.34
2023-03-13T13:24:52.642Z,-0.48
2023-03-13T13:29:57.214Z,-0.54
2023-03-13T13:35:06.463Z,-0.58
2023-03-13T13:40:33.744Z,-0.74
2023-03-13T13:45:39.101Z,-0.62
2023-03-13T13:51:05.847Z,-0.51
2023-03-13T13:56:29.065Z,-0.25
2023-03-13T14:01:34.687Z,-0.40
2023-03-13T14:06:38.999Z,-0.35
2023-03-13T14:11:42.378Z,-0.23
2023-03-13T14:16:47.883Z,-0.49
2023-03-13T14:21:51.249Z,-0.32
2023-03-13T14:26:54.556Z,-0.28
2023-03-13T14:31:59.614Z,-0.01
2023-03-13T14:37:17.697Z,-0.23
2023-03-13T14:42:21.424Z,-0.37
2023-03-13T14:47:27.061Z,-0.17
2023-03-13T14:52:31.280Z,-0.21
2023-03-13T14:57:37.342Z,-0.25
2023-03-13T15:02:44.328Z,-0.24
2023-03-13T15:07:49.527Z,-0.15
2023-03-13T15:12:53.264Z,-0.18
2023-03-13T15:17:59.022Z,-0.22
2023-03-13T15:23:02.608Z,-0.13
2023-03-13T15:28:14.763Z,-0.41
2023-03-13T15:33:20.747Z,-0.70
2023-03-13T15:38:25.612Z,-0.95
2023-03-13T15:43:29.104Z,-0.93
2023-03-13T15:48:33.972Z,-1.20
2023-03-13T15:53:39.364Z,-1.17
2023-03-13T15:58:43.111Z,-1.29
2023-03-13T16:03:48.154Z,-1.33
2023-03-13T16:08:51.624Z,-1.26
2023-03-13T16:13:55.507Z,-1.25
2023-03-13T16:19:01.070Z,-1.34
2023-03-13T16:24:04.579Z,-1.49
2023-03-13T16:29:08.042Z,-1.56
2023-03-13T16:34:12.828Z,-1.60
2023-03-13T16:39:16.935Z,-1.67
2023-03-13T16:44:20.789Z,-1.91
2023-03-13T16:49:25.680Z,-1.94
2023-03-13T16:54:28.979Z,-1.93
2023-03-13T16:59:32.368Z,-1.89
2023-03-13T17:04:37.296Z,-1.97
2023-03-13T17:09:43.046Z,-1.90
2023-03-13T17:14:46.981Z,-1.92
2023-03-13T17:19:57.524Z,-2.00
2023-03-13T17:25:01.136Z,-2.11
2023-03-13T17:30:05.721Z,-2.18
2023-03-13T17:40:37.446Z,-2.37
2023-03-13T17:45:48.425Z,-2.46
2023-03-13T17:50:54.176Z,-2.51
2023-03-13T17:55:57.773Z,-2.66
2023-03-13T18:01:01.223Z,-2.71
2023-03-13T18:06:17.137Z,-2.72
2023-03-13T18:11:22.080Z,-2.81
2023-03-13T18:16:27.317Z,-2.84
2023-03-13T18:21:32.689Z,-2.79
2023-03-13T18:26:38.105Z,-2.84
2023-03-13T18:31:43.762Z,-2.79
2023-03-13T18:36:49.211Z,-2.95
2023-03-13T18:41:53.494Z,-2.97
2023-03-13T18:46:56.845Z,-2.93
2023-03-13T18:52:02.008Z,-3.01
2023-03-13T18:57:12.748Z,-3.08
2023-03-13T19:02:16.657Z,-3.06
2023-03-13T19:07:25.525Z,-3.08
2023-03-13T19:12:29.219Z,-3.03
2023-03-13T19:17:32.606Z,-3.08
2023-03-13T19:22:39.891Z,-3.02
2023-03-13T19:27:43.253Z,-2.98
2023-03-13T19:32:46.657Z,-3.03
2023-03-13T19:37:51.852Z,-3.06
2023-03-13T19:42:55.251Z,-3.05
2023-03-13T19:48:00.746Z,-3.09
2023-03-13T19:53:05.530Z,-3.22
2023-03-13T19:58:12.790Z,-3.21
2023-03-13T20:03:16.156Z,-3.34
2023-03-13T20:08:20.857Z,-3.38
2023-03-13T20:13:24.331Z,-3.39
2023-03-13T20:18:27.998Z,-3.43
2023-03-13T20:23:32.938Z,-3.47
2023-03-13T20:28:36.616Z,-3.52
2023-03-13T20:33:41.431Z,-3.58
2023-03-13T20:38:46.444Z,-3.61
2023-03-13T20:43:50.167Z,-3.62
2023-03-13T20:48:53.698Z,-3.69
2023-03-13T20:53:58.638Z,-3.66
2023-03-13T20:59:02.059Z,-3.67
2023-03-13T21:04:06.374Z,-3.73
2023-03-13T21:09:11.197Z,-3.73
2023-03-13T21:14:14.549Z,-3.75
2023-03-13T21:19:18.081Z,-3.72
2023-03-13T21:24:22.981Z,-3.71
2023-03-13T21:29:26.436Z,-3.72
2023-03-13T21:34:29.901Z,-3.70
2023-03-13T21:39:34.734Z,-3.68
2023-03-13T21:44:40.808Z,-3.71
2023-03-13T21:49:46.425Z,-3.70
2023-03-13T21:54:53.609Z,-3.79
2023-03-13T21:59:57.221Z,-3.82
2023-03-13T22:05:00.577Z,-3.99
2023-03-13T22:10:05.827Z,-3.99
2023-03-13T22:15:10.013Z,-3.95
2023-03-13T22:20:13.739Z,-3.91
2023-03-13T22:25:18.555Z,-3.96
2023-03-13T22:30:22.000Z,-3.89
2023-03-13T22:35:25.427Z,-3.91
2023-03-13T22:40:30.185Z,-3.92
2023-03-13T22:45:36.334Z,-3.97
2023-03-13T22:50:39.911Z,-4.01
2023-03-13T22:55:44.572Z,-4.01
